<?xml version="1.0" encoding="UTF-8" standalone="no" ?>
<gpx xmlns="http://www.topografix.com/GPX/1/1" xmlns:xsi="http://www.w3.org/2001/XMLSchema-instance" xsi:schemaLocation="http://www.topografix.com/GPX/1/1 http://www.topografix.com/GPX/1/1/gpx.xsd" version="1.1" creator="VisuGPX - https://www.visugpx.com">
  <metadata>
    <name>AUTIGNAC 30 KM</name>
  </metadata>
  <trk>
    <name><![CDATA[AUTIGNAC 30 KM_1]]></name>
    <extensions>
      <line xmlns="http://www.topografix.com/GPX/gpx_style/0/2">
        <color>0000FF</color>
        <width>4</width>
      </line>
    </extensions>
    <trkseg>
      <trkpt lat="43.50034" lon="3.16845">
        <ele>163.3</ele>
      </trkpt>
      <trkpt lat="43.50034" lon="3.16845">
        <ele>163.3</ele>
      </trkpt>
      <trkpt lat="43.50106" lon="3.16708">
        <ele>155.6</ele>
      </trkpt>
      <trkpt lat="43.50091" lon="3.16595">
        <ele>149.8</ele>
      </trkpt>
      <trkpt lat="43.50111" lon="3.16569">
        <ele>149.4</ele>
        <time>2021-09-05T12:28:21Z</time>
      </trkpt>
      <trkpt lat="43.50115" lon="3.1656">
        <ele>149.2</ele>
      </trkpt>
      <trkpt lat="43.50123" lon="3.16551">
        <ele>149</ele>
        <time>2021-09-05T12:28:33Z</time>
      </trkpt>
      <trkpt lat="43.50129" lon="3.1654">
        <ele>148.7</ele>
      </trkpt>
      <trkpt lat="43.50136" lon="3.1653">
        <ele>148.2</ele>
        <time>2021-09-05T12:28:39Z</time>
      </trkpt>
      <trkpt lat="43.50151" lon="3.165">
        <ele>146.5</ele>
      </trkpt>
      <trkpt lat="43.50153" lon="3.16489">
        <ele>145.7</ele>
      </trkpt>
      <trkpt lat="43.50151" lon="3.1648">
        <ele>145.1</ele>
      </trkpt>
      <trkpt lat="43.50147" lon="3.16468">
        <ele>144.3</ele>
      </trkpt>
      <trkpt lat="43.50145" lon="3.16461">
        <ele>143.8</ele>
      </trkpt>
      <trkpt lat="43.50141" lon="3.16459">
        <ele>143.8</ele>
      </trkpt>
      <trkpt lat="43.50136" lon="3.16454">
        <ele>143.6</ele>
      </trkpt>
      <trkpt lat="43.50126" lon="3.16439">
        <ele>149.4</ele>
        <time>2021-09-05T12:30:14Z</time>
      </trkpt>
      <trkpt lat="43.50114" lon="3.16432">
        <ele>149.4</ele>
        <time>2021-09-05T12:30:21Z</time>
      </trkpt>
      <trkpt lat="43.5009" lon="3.16416">
        <ele>149.2</ele>
        <time>2021-09-05T12:30:35Z</time>
      </trkpt>
      <trkpt lat="43.50077" lon="3.1641">
        <ele>149</ele>
        <time>2021-09-05T12:30:42Z</time>
      </trkpt>
      <trkpt lat="43.50053" lon="3.16388">
        <ele>148</ele>
        <time>2021-09-05T12:30:55Z</time>
      </trkpt>
      <trkpt lat="43.50045" lon="3.16371">
        <ele>147.6</ele>
        <time>2021-09-05T12:31:00Z</time>
      </trkpt>
      <trkpt lat="43.50038" lon="3.16352">
        <ele>147.2</ele>
        <time>2021-09-05T12:31:04Z</time>
      </trkpt>
      <trkpt lat="43.50018" lon="3.16332">
        <ele>146.8</ele>
        <time>2021-09-05T12:31:10Z</time>
      </trkpt>
      <trkpt lat="43.49968" lon="3.16302">
        <ele>145.4</ele>
        <time>2021-09-05T12:31:23Z</time>
      </trkpt>
      <trkpt lat="43.49923" lon="3.16269">
        <ele>143.6</ele>
        <time>2021-09-05T12:31:34Z</time>
      </trkpt>
      <trkpt lat="43.4992" lon="3.16265">
        <ele>143.4</ele>
        <time>2021-09-05T12:31:35Z</time>
      </trkpt>
      <trkpt lat="43.499" lon="3.16238">
        <ele>127.2</ele>
      </trkpt>
      <trkpt lat="43.49881" lon="3.16222">
        <ele>125.2</ele>
      </trkpt>
      <trkpt lat="43.49843" lon="3.16211">
        <ele>135.8</ele>
        <time>2021-09-05T12:32:19Z</time>
      </trkpt>
      <trkpt lat="43.49842" lon="3.16211">
        <ele>135.6</ele>
        <time>2021-09-05T12:32:20Z</time>
      </trkpt>
      <trkpt lat="43.49845" lon="3.16213">
        <ele>134.6</ele>
        <time>2021-09-05T12:32:27Z</time>
      </trkpt>
      <trkpt lat="43.49851" lon="3.16214">
        <ele>134.2</ele>
        <time>2021-09-05T12:32:32Z</time>
      </trkpt>
      <trkpt lat="43.49815" lon="3.16204">
        <ele>128.8</ele>
        <time>2021-09-05T12:34:29Z</time>
      </trkpt>
      <trkpt lat="43.49806" lon="3.16201">
        <ele>128.6</ele>
        <time>2021-09-05T12:34:31Z</time>
      </trkpt>
      <trkpt lat="43.49792" lon="3.16187">
        <ele>128.2</ele>
        <time>2021-09-05T12:34:35Z</time>
      </trkpt>
      <trkpt lat="43.4979" lon="3.16178">
        <ele>127.8</ele>
        <time>2021-09-05T12:34:37Z</time>
      </trkpt>
      <trkpt lat="43.49794" lon="3.16164">
        <ele>127.4</ele>
        <time>2021-09-05T12:34:40Z</time>
      </trkpt>
      <trkpt lat="43.49801" lon="3.16156">
        <ele>127.2</ele>
        <time>2021-09-05T12:34:42Z</time>
      </trkpt>
      <trkpt lat="43.49848" lon="3.1613">
        <ele>125.8</ele>
        <time>2021-09-05T12:34:52Z</time>
      </trkpt>
      <trkpt lat="43.49874" lon="3.16107">
        <ele>125</ele>
        <time>2021-09-05T12:34:58Z</time>
      </trkpt>
      <trkpt lat="43.49893" lon="3.16091">
        <ele>124.4</ele>
        <time>2021-09-05T12:35:02Z</time>
      </trkpt>
      <trkpt lat="43.49906" lon="3.16085">
        <ele>116.9</ele>
      </trkpt>
      <trkpt lat="43.4992" lon="3.16087">
        <ele>123.6</ele>
        <time>2021-09-05T12:35:07Z</time>
      </trkpt>
      <trkpt lat="43.49936" lon="3.16089">
        <ele>123.2</ele>
        <time>2021-09-05T12:35:10Z</time>
      </trkpt>
      <trkpt lat="43.4999" lon="3.16107">
        <ele>122.2</ele>
        <time>2021-09-05T12:35:21Z</time>
      </trkpt>
      <trkpt lat="43.49994" lon="3.16106">
        <ele>122</ele>
        <time>2021-09-05T12:35:22Z</time>
      </trkpt>
      <trkpt lat="43.50003" lon="3.16092">
        <ele>121.6</ele>
        <time>2021-09-05T12:35:25Z</time>
      </trkpt>
      <trkpt lat="43.50007" lon="3.16068">
        <ele>121</ele>
        <time>2021-09-05T12:35:29Z</time>
      </trkpt>
      <trkpt lat="43.5" lon="3.16061">
        <ele>120.8</ele>
        <time>2021-09-05T12:35:31Z</time>
      </trkpt>
      <trkpt lat="43.4999" lon="3.16061">
        <ele>120.8</ele>
        <time>2021-09-05T12:35:33Z</time>
      </trkpt>
      <trkpt lat="43.49981" lon="3.16058">
        <ele>120.6</ele>
        <time>2021-09-05T12:35:35Z</time>
      </trkpt>
      <trkpt lat="43.49977" lon="3.16049">
        <ele>120.6</ele>
        <time>2021-09-05T12:35:37Z</time>
      </trkpt>
      <trkpt lat="43.4998" lon="3.1604">
        <ele>120.6</ele>
        <time>2021-09-05T12:35:39Z</time>
      </trkpt>
      <trkpt lat="43.50001" lon="3.16006">
        <ele>122.2</ele>
        <time>2021-09-05T12:35:50Z</time>
      </trkpt>
      <trkpt lat="43.49998" lon="3.15971">
        <ele>123.2</ele>
        <time>2021-09-05T12:35:58Z</time>
      </trkpt>
      <trkpt lat="43.49994" lon="3.15936">
        <ele>124.8</ele>
        <time>2021-09-05T12:36:06Z</time>
      </trkpt>
      <trkpt lat="43.49992" lon="3.15874">
        <ele>128</ele>
        <time>2021-09-05T12:36:20Z</time>
      </trkpt>
      <trkpt lat="43.5" lon="3.15848">
        <ele>129.4</ele>
        <time>2021-09-05T12:36:26Z</time>
      </trkpt>
      <trkpt lat="43.5002" lon="3.15815">
        <ele>131.4</ele>
        <time>2021-09-05T12:36:35Z</time>
      </trkpt>
      <trkpt lat="43.50035" lon="3.15789">
        <ele>133</ele>
        <time>2021-09-05T12:36:42Z</time>
      </trkpt>
      <trkpt lat="43.50057" lon="3.15757">
        <ele>134.8</ele>
        <time>2021-09-05T12:36:52Z</time>
      </trkpt>
      <trkpt lat="43.50063" lon="3.15753">
        <ele>135.2</ele>
        <time>2021-09-05T12:36:54Z</time>
      </trkpt>
      <trkpt lat="43.50086" lon="3.15765">
        <ele>136</ele>
        <time>2021-09-05T12:37:02Z</time>
      </trkpt>
      <trkpt lat="43.50145" lon="3.15787">
        <ele>137.2</ele>
        <time>2021-09-05T12:37:16Z</time>
      </trkpt>
      <trkpt lat="43.50155" lon="3.15791">
        <ele>137.2</ele>
        <time>2021-09-05T12:37:18Z</time>
      </trkpt>
      <trkpt lat="43.5019" lon="3.15818">
        <ele>138</ele>
        <time>2021-09-05T12:37:27Z</time>
      </trkpt>
      <trkpt lat="43.50206" lon="3.15824">
        <ele>138.4</ele>
        <time>2021-09-05T12:37:31Z</time>
      </trkpt>
      <trkpt lat="43.50217" lon="3.15821">
        <ele>138.6</ele>
        <time>2021-09-05T12:37:34Z</time>
      </trkpt>
      <trkpt lat="43.50219" lon="3.15816">
        <ele>138.6</ele>
        <time>2021-09-05T12:37:35Z</time>
      </trkpt>
      <trkpt lat="43.50219" lon="3.15796">
        <ele>138.8</ele>
        <time>2021-09-05T12:37:38Z</time>
      </trkpt>
      <trkpt lat="43.50205" lon="3.157">
        <ele>138.6</ele>
        <time>2021-09-05T12:37:49Z</time>
      </trkpt>
      <trkpt lat="43.50196" lon="3.15625">
        <ele>138</ele>
        <time>2021-09-05T12:37:57Z</time>
      </trkpt>
      <trkpt lat="43.50187" lon="3.15582">
        <ele>137.2</ele>
        <time>2021-09-05T12:38:02Z</time>
      </trkpt>
      <trkpt lat="43.50185" lon="3.15565">
        <ele>136.8</ele>
        <time>2021-09-05T12:38:04Z</time>
      </trkpt>
      <trkpt lat="43.50181" lon="3.15511">
        <ele>135.6</ele>
        <time>2021-09-05T12:38:10Z</time>
      </trkpt>
      <trkpt lat="43.50175" lon="3.15494">
        <ele>135</ele>
        <time>2021-09-05T12:38:12Z</time>
      </trkpt>
      <trkpt lat="43.50143" lon="3.15442">
        <ele>133.6</ele>
        <time>2021-09-05T12:38:19Z</time>
      </trkpt>
      <trkpt lat="43.5014" lon="3.15426">
        <ele>133.2</ele>
        <time>2021-09-05T12:38:21Z</time>
      </trkpt>
      <trkpt lat="43.5014" lon="3.15408">
        <ele>132.8</ele>
        <time>2021-09-05T12:38:23Z</time>
      </trkpt>
      <trkpt lat="43.50133" lon="3.15381">
        <ele>132</ele>
        <time>2021-09-05T12:38:26Z</time>
      </trkpt>
      <trkpt lat="43.5012" lon="3.15357">
        <ele>131.2</ele>
        <time>2021-09-05T12:38:29Z</time>
      </trkpt>
      <trkpt lat="43.50115" lon="3.15339">
        <ele>130.8</ele>
        <time>2021-09-05T12:38:31Z</time>
      </trkpt>
      <trkpt lat="43.5011" lon="3.15315">
        <ele>130.2</ele>
        <time>2021-09-05T12:38:34Z</time>
      </trkpt>
      <trkpt lat="43.50102" lon="3.15296">
        <ele>126.6</ele>
        <time>2021-09-05T12:39:25Z</time>
      </trkpt>
      <trkpt lat="43.50108" lon="3.15312">
        <ele>126.2</ele>
        <time>2021-09-05T12:39:28Z</time>
      </trkpt>
      <trkpt lat="43.50124" lon="3.15365">
        <ele>125.2</ele>
        <time>2021-09-05T12:39:35Z</time>
      </trkpt>
      <trkpt lat="43.50132" lon="3.1538">
        <ele>125</ele>
        <time>2021-09-05T12:39:38Z</time>
      </trkpt>
      <trkpt lat="43.50137" lon="3.15388">
        <ele>124.6</ele>
        <time>2021-09-05T12:39:42Z</time>
      </trkpt>
      <trkpt lat="43.50131" lon="3.15377">
        <ele>124</ele>
        <time>2021-09-05T12:39:46Z</time>
      </trkpt>
      <trkpt lat="43.50118" lon="3.15352">
        <ele>123.8</ele>
        <time>2021-09-05T12:39:50Z</time>
      </trkpt>
      <trkpt lat="43.50109" lon="3.15312">
        <ele>123.4</ele>
        <time>2021-09-05T12:39:55Z</time>
      </trkpt>
      <trkpt lat="43.50099" lon="3.15291">
        <ele>122.7</ele>
        <time>2021-09-05T12:39:58Z</time>
      </trkpt>
      <trkpt lat="43.50008" lon="3.15282">
        <ele>123.2</ele>
        <time>2021-09-05T12:40:16Z</time>
      </trkpt>
      <trkpt lat="43.49995" lon="3.15276">
        <ele>123</ele>
        <time>2021-09-05T12:40:18Z</time>
      </trkpt>
      <trkpt lat="43.4998" lon="3.15257">
        <ele>122.4</ele>
        <time>2021-09-05T12:40:21Z</time>
      </trkpt>
      <trkpt lat="43.49934" lon="3.15164">
        <ele>120.4</ele>
        <time>2021-09-05T12:40:34Z</time>
      </trkpt>
      <trkpt lat="43.49923" lon="3.1514">
        <ele>120</ele>
        <time>2021-09-05T12:40:39Z</time>
      </trkpt>
      <trkpt lat="43.49884" lon="3.15076">
        <ele>119.4</ele>
        <time>2021-09-05T12:40:53Z</time>
      </trkpt>
      <trkpt lat="43.49878" lon="3.15068">
        <ele>119.2</ele>
        <time>2021-09-05T12:40:55Z</time>
      </trkpt>
      <trkpt lat="43.49842" lon="3.1503">
        <ele>119</ele>
        <time>2021-09-05T12:41:05Z</time>
      </trkpt>
      <trkpt lat="43.49828" lon="3.15015">
        <ele>119</ele>
        <time>2021-09-05T12:41:10Z</time>
      </trkpt>
      <trkpt lat="43.49797" lon="3.15003">
        <ele>119</ele>
        <time>2021-09-05T12:41:21Z</time>
      </trkpt>
      <trkpt lat="43.49738" lon="3.15002">
        <ele>118.8</ele>
        <time>2021-09-05T12:41:34Z</time>
      </trkpt>
      <trkpt lat="43.49697" lon="3.15004">
        <ele>118.6</ele>
        <time>2021-09-05T12:41:41Z</time>
      </trkpt>
      <trkpt lat="43.49615" lon="3.15012">
        <ele>117.8</ele>
        <time>2021-09-05T12:41:54Z</time>
      </trkpt>
      <trkpt lat="43.49603" lon="3.1501">
        <ele>117.6</ele>
        <time>2021-09-05T12:41:56Z</time>
      </trkpt>
      <trkpt lat="43.49522" lon="3.14998">
        <ele>116.6</ele>
        <time>2021-09-05T12:42:10Z</time>
      </trkpt>
      <trkpt lat="43.4949" lon="3.14992">
        <ele>115.8</ele>
        <time>2021-09-05T12:42:16Z</time>
      </trkpt>
      <trkpt lat="43.49441" lon="3.1499">
        <ele>114.6</ele>
        <time>2021-09-05T12:42:26Z</time>
      </trkpt>
      <trkpt lat="43.49432" lon="3.1499">
        <ele>114.4</ele>
        <time>2021-09-05T12:42:28Z</time>
      </trkpt>
      <trkpt lat="43.4939" lon="3.14989">
        <ele>113.8</ele>
        <time>2021-09-05T12:42:37Z</time>
      </trkpt>
      <trkpt lat="43.49364" lon="3.14992">
        <ele>113.8</ele>
        <time>2021-09-05T12:42:44Z</time>
      </trkpt>
      <trkpt lat="43.49353" lon="3.14996">
        <ele>113.8</ele>
        <time>2021-09-05T12:42:47Z</time>
      </trkpt>
      <trkpt lat="43.49326" lon="3.15011">
        <ele>115</ele>
        <time>2021-09-05T12:42:55Z</time>
      </trkpt>
      <trkpt lat="43.49317" lon="3.15023">
        <ele>114.4</ele>
        <time>2021-09-05T12:42:58Z</time>
      </trkpt>
      <trkpt lat="43.49314" lon="3.15056">
        <ele>114.8</ele>
        <time>2021-09-05T12:43:04Z</time>
      </trkpt>
      <trkpt lat="43.49311" lon="3.15067">
        <ele>115</ele>
        <time>2021-09-05T12:43:06Z</time>
      </trkpt>
      <trkpt lat="43.49303" lon="3.15078">
        <ele>115</ele>
        <time>2021-09-05T12:43:08Z</time>
      </trkpt>
      <trkpt lat="43.49263" lon="3.15118">
        <ele>114.6</ele>
        <time>2021-09-05T12:43:16Z</time>
      </trkpt>
      <trkpt lat="43.49226" lon="3.15156">
        <ele>114.8</ele>
        <time>2021-09-05T12:43:24Z</time>
      </trkpt>
      <trkpt lat="43.49158" lon="3.15233">
        <ele>114.4</ele>
        <time>2021-09-05T12:43:37Z</time>
      </trkpt>
      <trkpt lat="43.49134" lon="3.1528">
        <ele>113.8</ele>
        <time>2021-09-05T12:43:43Z</time>
      </trkpt>
      <trkpt lat="43.49079" lon="3.15346">
        <ele>112.6</ele>
        <time>2021-09-05T12:43:55Z</time>
      </trkpt>
      <trkpt lat="43.49037" lon="3.15393">
        <ele>111.8</ele>
        <time>2021-09-05T12:44:03Z</time>
      </trkpt>
      <trkpt lat="43.4901" lon="3.15424">
        <ele>111.4</ele>
        <time>2021-09-05T12:44:09Z</time>
      </trkpt>
      <trkpt lat="43.48983" lon="3.15446">
        <ele>111.4</ele>
        <time>2021-09-05T12:44:15Z</time>
      </trkpt>
      <trkpt lat="43.48947" lon="3.1547">
        <ele>111.4</ele>
        <time>2021-09-05T12:44:22Z</time>
      </trkpt>
      <trkpt lat="43.48886" lon="3.15537">
        <ele>110.6</ele>
        <time>2021-09-05T12:44:36Z</time>
      </trkpt>
      <trkpt lat="43.48858" lon="3.15563">
        <ele>110</ele>
        <time>2021-09-05T12:44:42Z</time>
      </trkpt>
      <trkpt lat="43.48813" lon="3.15606">
        <ele>109.2</ele>
        <time>2021-09-05T12:44:51Z</time>
      </trkpt>
      <trkpt lat="43.48797" lon="3.15617">
        <ele>109</ele>
        <time>2021-09-05T12:44:54Z</time>
      </trkpt>
      <trkpt lat="43.48742" lon="3.1566">
        <ele>108.4</ele>
        <time>2021-09-05T12:45:05Z</time>
      </trkpt>
      <trkpt lat="43.48709" lon="3.15692">
        <ele>108</ele>
        <time>2021-09-05T12:45:12Z</time>
      </trkpt>
      <trkpt lat="43.48674" lon="3.15738">
        <ele>107.6</ele>
        <time>2021-09-05T12:45:21Z</time>
      </trkpt>
      <trkpt lat="43.48644" lon="3.15805">
        <ele>107.2</ele>
        <time>2021-09-05T12:45:31Z</time>
      </trkpt>
      <trkpt lat="43.4862" lon="3.15849">
        <ele>107</ele>
        <time>2021-09-05T12:45:38Z</time>
      </trkpt>
      <trkpt lat="43.48604" lon="3.15882">
        <ele>107</ele>
        <time>2021-09-05T12:45:45Z</time>
      </trkpt>
      <trkpt lat="43.48598" lon="3.15894">
        <ele>107.6</ele>
        <time>2021-09-05T12:45:48Z</time>
      </trkpt>
      <trkpt lat="43.48573" lon="3.15918">
        <ele>108</ele>
        <time>2021-09-05T12:45:56Z</time>
      </trkpt>
      <trkpt lat="43.48545" lon="3.15941">
        <ele>108.2</ele>
        <time>2021-09-05T12:46:03Z</time>
      </trkpt>
      <trkpt lat="43.48502" lon="3.15974">
        <ele>108.4</ele>
        <time>2021-09-05T12:46:12Z</time>
      </trkpt>
      <trkpt lat="43.48448" lon="3.16018">
        <ele>108.6</ele>
        <time>2021-09-05T12:46:23Z</time>
      </trkpt>
      <trkpt lat="43.48412" lon="3.16054">
        <ele>108.8</ele>
        <time>2021-09-05T12:46:31Z</time>
      </trkpt>
      <trkpt lat="43.48367" lon="3.16105">
        <ele>108.8</ele>
        <time>2021-09-05T12:46:42Z</time>
      </trkpt>
      <trkpt lat="43.48348" lon="3.16128">
        <ele>108.4</ele>
        <time>2021-09-05T12:46:46Z</time>
      </trkpt>
      <trkpt lat="43.48302" lon="3.16152">
        <ele>107.4</ele>
        <time>2021-09-05T12:46:53Z</time>
      </trkpt>
      <trkpt lat="43.4828" lon="3.16162">
        <ele>106.6</ele>
        <time>2021-09-05T12:46:56Z</time>
      </trkpt>
      <trkpt lat="43.48256" lon="3.1617">
        <ele>105.6</ele>
        <time>2021-09-05T12:46:59Z</time>
      </trkpt>
      <trkpt lat="43.48234" lon="3.16174">
        <ele>104.8</ele>
        <time>2021-09-05T12:47:02Z</time>
      </trkpt>
      <trkpt lat="43.48212" lon="3.16184">
        <ele>104</ele>
        <time>2021-09-05T12:47:06Z</time>
      </trkpt>
      <trkpt lat="43.48198" lon="3.16185">
        <ele>103.2</ele>
        <time>2021-09-05T12:47:09Z</time>
      </trkpt>
      <trkpt lat="43.48193" lon="3.16183">
        <ele>103</ele>
        <time>2021-09-05T12:47:10Z</time>
      </trkpt>
      <trkpt lat="43.48125" lon="3.16165">
        <ele>100.8</ele>
        <time>2021-09-05T12:47:22Z</time>
      </trkpt>
      <trkpt lat="43.48091" lon="3.16166">
        <ele>99.6</ele>
        <time>2021-09-05T12:47:28Z</time>
      </trkpt>
      <trkpt lat="43.48008" lon="3.16164">
        <ele>97.4</ele>
        <time>2021-09-05T12:47:43Z</time>
      </trkpt>
      <trkpt lat="43.47956" lon="3.16157">
        <ele>96.2</ele>
        <time>2021-09-05T12:47:52Z</time>
      </trkpt>
      <trkpt lat="43.4789" lon="3.1615">
        <ele>94.2</ele>
        <time>2021-09-05T12:48:04Z</time>
      </trkpt>
      <trkpt lat="43.47851" lon="3.16143">
        <ele>92.8</ele>
        <time>2021-09-05T12:48:12Z</time>
      </trkpt>
      <trkpt lat="43.47836" lon="3.16147">
        <ele>92.2</ele>
        <time>2021-09-05T12:48:15Z</time>
      </trkpt>
      <trkpt lat="43.47828" lon="3.16154">
        <ele>91.6</ele>
        <time>2021-09-05T12:48:17Z</time>
      </trkpt>
      <trkpt lat="43.47823" lon="3.16164">
        <ele>91</ele>
        <time>2021-09-05T12:48:19Z</time>
      </trkpt>
      <trkpt lat="43.47795" lon="3.16253">
        <ele>87.8</ele>
        <time>2021-09-05T12:48:33Z</time>
      </trkpt>
      <trkpt lat="43.47791" lon="3.16266">
        <ele>87.4</ele>
        <time>2021-09-05T12:48:35Z</time>
      </trkpt>
      <trkpt lat="43.47776" lon="3.16329">
        <ele>85.2</ele>
        <time>2021-09-05T12:48:45Z</time>
      </trkpt>
      <trkpt lat="43.47757" lon="3.16383">
        <ele>82.6</ele>
        <time>2021-09-05T12:48:56Z</time>
      </trkpt>
      <trkpt lat="43.4775" lon="3.16389">
        <ele>82.4</ele>
        <time>2021-09-05T12:48:58Z</time>
      </trkpt>
      <trkpt lat="43.47716" lon="3.164">
        <ele>81.2</ele>
        <time>2021-09-05T12:49:05Z</time>
      </trkpt>
      <trkpt lat="43.47707" lon="3.16411">
        <ele>80.6</ele>
        <time>2021-09-05T12:49:08Z</time>
      </trkpt>
      <trkpt lat="43.47701" lon="3.16453">
        <ele>79.2</ele>
        <time>2021-09-05T12:49:14Z</time>
      </trkpt>
      <trkpt lat="43.47699" lon="3.16467">
        <ele>79</ele>
        <time>2021-09-05T12:49:16Z</time>
      </trkpt>
      <trkpt lat="43.47692" lon="3.16484">
        <ele>78.4</ele>
        <time>2021-09-05T12:49:19Z</time>
      </trkpt>
      <trkpt lat="43.47687" lon="3.16485">
        <ele>78.2</ele>
        <time>2021-09-05T12:49:20Z</time>
      </trkpt>
      <trkpt lat="43.47658" lon="3.16468">
        <ele>77.2</ele>
        <time>2021-09-05T12:49:27Z</time>
      </trkpt>
      <trkpt lat="43.47607" lon="3.16434">
        <ele>75.2</ele>
        <time>2021-09-05T12:49:41Z</time>
      </trkpt>
      <trkpt lat="43.47591" lon="3.16426">
        <ele>74.4</ele>
        <time>2021-09-05T12:49:47Z</time>
      </trkpt>
      <trkpt lat="43.47562" lon="3.16406">
        <ele>73.2</ele>
        <time>2021-09-05T12:49:56Z</time>
      </trkpt>
      <trkpt lat="43.47558" lon="3.16403">
        <ele>73.2</ele>
        <time>2021-09-05T12:49:57Z</time>
      </trkpt>
      <trkpt lat="43.4752" lon="3.16376">
        <ele>72</ele>
        <time>2021-09-05T12:50:06Z</time>
      </trkpt>
      <trkpt lat="43.47511" lon="3.1637">
        <ele>72</ele>
        <time>2021-09-05T12:50:08Z</time>
      </trkpt>
      <trkpt lat="43.47492" lon="3.16349">
        <ele>71.8</ele>
        <time>2021-09-05T12:50:13Z</time>
      </trkpt>
      <trkpt lat="43.47478" lon="3.1633">
        <ele>71.6</ele>
        <time>2021-09-05T12:50:17Z</time>
      </trkpt>
      <trkpt lat="43.47467" lon="3.16315">
        <ele>71.8</ele>
        <time>2021-09-05T12:50:20Z</time>
      </trkpt>
      <trkpt lat="43.47459" lon="3.1631">
        <ele>71.8</ele>
        <time>2021-09-05T12:50:22Z</time>
      </trkpt>
      <trkpt lat="43.47449" lon="3.16306">
        <ele>72</ele>
        <time>2021-09-05T12:50:24Z</time>
      </trkpt>
      <trkpt lat="43.47429" lon="3.16302">
        <ele>72.4</ele>
        <time>2021-09-05T12:50:28Z</time>
      </trkpt>
      <trkpt lat="43.47413" lon="3.16303">
        <ele>72.2</ele>
        <time>2021-09-05T12:50:31Z</time>
      </trkpt>
      <trkpt lat="43.47386" lon="3.16311">
        <ele>72.6</ele>
        <time>2021-09-05T12:50:36Z</time>
      </trkpt>
      <trkpt lat="43.4736" lon="3.16331">
        <ele>72.2</ele>
        <time>2021-09-05T12:50:42Z</time>
      </trkpt>
      <trkpt lat="43.47323" lon="3.16351">
        <ele>71.8</ele>
        <time>2021-09-05T12:50:48Z</time>
      </trkpt>
      <trkpt lat="43.47239" lon="3.16382">
        <ele>71.6</ele>
        <time>2021-09-05T12:51:02Z</time>
      </trkpt>
      <trkpt lat="43.47191" lon="3.16388">
        <ele>71.6</ele>
        <time>2021-09-05T12:51:10Z</time>
      </trkpt>
      <trkpt lat="43.4717" lon="3.16399">
        <ele>71.6</ele>
        <time>2021-09-05T12:51:14Z</time>
      </trkpt>
      <trkpt lat="43.47167" lon="3.16404">
        <ele>71.6</ele>
        <time>2021-09-05T12:51:15Z</time>
      </trkpt>
      <trkpt lat="43.47141" lon="3.16437">
        <ele>71.8</ele>
        <time>2021-09-05T12:51:22Z</time>
      </trkpt>
      <trkpt lat="43.47131" lon="3.16443">
        <ele>71.8</ele>
        <time>2021-09-05T12:51:24Z</time>
      </trkpt>
      <trkpt lat="43.47052" lon="3.16464">
        <ele>73</ele>
        <time>2021-09-05T12:51:39Z</time>
      </trkpt>
      <trkpt lat="43.47034" lon="3.16473">
        <ele>73.4</ele>
        <time>2021-09-05T12:51:44Z</time>
      </trkpt>
      <trkpt lat="43.47022" lon="3.16481">
        <ele>73.6</ele>
        <time>2021-09-05T12:51:47Z</time>
      </trkpt>
      <trkpt lat="43.46959" lon="3.16533">
        <ele>74.6</ele>
        <time>2021-09-05T12:52:01Z</time>
      </trkpt>
      <trkpt lat="43.46955" lon="3.16537">
        <ele>74.6</ele>
        <time>2021-09-05T12:52:02Z</time>
      </trkpt>
      <trkpt lat="43.46932" lon="3.16564">
        <ele>75.2</ele>
        <time>2021-09-05T12:52:08Z</time>
      </trkpt>
      <trkpt lat="43.4693" lon="3.1657">
        <ele>75.2</ele>
        <time>2021-09-05T12:52:10Z</time>
      </trkpt>
      <trkpt lat="43.46934" lon="3.16564">
        <ele>75.4</ele>
        <time>2021-09-05T12:52:14Z</time>
      </trkpt>
      <trkpt lat="43.46924" lon="3.16561">
        <ele>75.6</ele>
        <time>2021-09-05T12:52:17Z</time>
      </trkpt>
      <trkpt lat="43.46896" lon="3.16572">
        <ele>75.8</ele>
        <time>2021-09-05T12:52:23Z</time>
      </trkpt>
      <trkpt lat="43.46869" lon="3.16592">
        <ele>76.2</ele>
        <time>2021-09-05T12:52:29Z</time>
      </trkpt>
      <trkpt lat="43.46861" lon="3.16599">
        <ele>76.4</ele>
        <time>2021-09-05T12:52:31Z</time>
      </trkpt>
      <trkpt lat="43.4685" lon="3.16611">
        <ele>76.6</ele>
        <time>2021-09-05T12:52:34Z</time>
      </trkpt>
      <trkpt lat="43.46844" lon="3.16621">
        <ele>76.8</ele>
        <time>2021-09-05T12:52:36Z</time>
      </trkpt>
      <trkpt lat="43.4681" lon="3.16695">
        <ele>78</ele>
        <time>2021-09-05T12:52:49Z</time>
      </trkpt>
      <trkpt lat="43.468" lon="3.16745">
        <ele>78.6</ele>
        <time>2021-09-05T12:52:57Z</time>
      </trkpt>
      <trkpt lat="43.46792" lon="3.16782">
        <ele>79.2</ele>
        <time>2021-09-05T12:53:03Z</time>
      </trkpt>
      <trkpt lat="43.46786" lon="3.16807">
        <ele>79.6</ele>
        <time>2021-09-05T12:53:07Z</time>
      </trkpt>
      <trkpt lat="43.46783" lon="3.16825">
        <ele>79.8</ele>
        <time>2021-09-05T12:53:10Z</time>
      </trkpt>
      <trkpt lat="43.46771" lon="3.16887">
        <ele>80.8</ele>
        <time>2021-09-05T12:53:20Z</time>
      </trkpt>
      <trkpt lat="43.46762" lon="3.16902">
        <ele>81</ele>
        <time>2021-09-05T12:53:23Z</time>
      </trkpt>
      <trkpt lat="43.46721" lon="3.16953">
        <ele>82</ele>
        <time>2021-09-05T12:53:35Z</time>
      </trkpt>
      <trkpt lat="43.46714" lon="3.16961">
        <ele>82.2</ele>
        <time>2021-09-05T12:53:37Z</time>
      </trkpt>
      <trkpt lat="43.46703" lon="3.16971">
        <ele>82.6</ele>
        <time>2021-09-05T12:53:40Z</time>
      </trkpt>
      <trkpt lat="43.46663" lon="3.16979">
        <ele>83.6</ele>
        <time>2021-09-05T12:53:49Z</time>
      </trkpt>
      <trkpt lat="43.46625" lon="3.16984">
        <ele>84.6</ele>
        <time>2021-09-05T12:53:58Z</time>
      </trkpt>
      <trkpt lat="43.46603" lon="3.16995">
        <ele>84.8</ele>
        <time>2021-09-05T12:54:03Z</time>
      </trkpt>
      <trkpt lat="43.46587" lon="3.17004">
        <ele>84.8</ele>
        <time>2021-09-05T12:54:08Z</time>
      </trkpt>
      <trkpt lat="43.46583" lon="3.17005">
        <ele>85.4</ele>
        <time>2021-09-05T12:54:22Z</time>
      </trkpt>
      <trkpt lat="43.46582" lon="3.17007">
        <ele>85.4</ele>
        <time>2021-09-05T12:54:23Z</time>
      </trkpt>
      <trkpt lat="43.46541" lon="3.17024">
        <ele>85.2</ele>
        <time>2021-09-05T12:54:33Z</time>
      </trkpt>
      <trkpt lat="43.46479" lon="3.1706">
        <ele>84.4</ele>
        <time>2021-09-05T12:54:43Z</time>
      </trkpt>
      <trkpt lat="43.46427" lon="3.171">
        <ele>83.4</ele>
        <time>2021-09-05T12:54:51Z</time>
      </trkpt>
      <trkpt lat="43.46371" lon="3.17148">
        <ele>82</ele>
        <time>2021-09-05T12:55:00Z</time>
      </trkpt>
      <trkpt lat="43.46347" lon="3.17171">
        <ele>81.4</ele>
        <time>2021-09-05T12:55:05Z</time>
      </trkpt>
      <trkpt lat="43.46336" lon="3.17178">
        <ele>80.6</ele>
        <time>2021-09-05T12:55:11Z</time>
      </trkpt>
      <trkpt lat="43.46331" lon="3.17181">
        <ele>80.2</ele>
        <time>2021-09-05T12:55:15Z</time>
      </trkpt>
      <trkpt lat="43.46289" lon="3.17217">
        <ele>72.3</ele>
        <time>2021-09-05T12:55:20Z</time>
      </trkpt>
      <trkpt lat="43.46027" lon="3.17525">
        <ele>71.8</ele>
        <time>2021-09-05T12:56:39Z</time>
      </trkpt>
      <trkpt lat="43.4603" lon="3.17518">
        <ele>69.2</ele>
      </trkpt>
      <trkpt lat="43.46027" lon="3.17526">
        <ele>69.8</ele>
        <time>2021-09-05T12:57:18Z</time>
      </trkpt>
      <trkpt lat="43.45937" lon="3.17402">
        <ele>66.4</ele>
      </trkpt>
      <trkpt lat="43.46133" lon="3.17071">
        <ele>70.5</ele>
      </trkpt>
      <trkpt lat="43.45846" lon="3.16874">
        <ele>69.7</ele>
        <time>2021-09-05T12:57:35Z</time>
      </trkpt>
      <trkpt lat="43.45613" lon="3.16831">
        <ele>66.6</ele>
        <time>2021-09-05T12:57:44Z</time>
      </trkpt>
      <trkpt lat="43.45575" lon="3.16831">
        <ele>66.7</ele>
        <time>2021-09-05T12:58:04Z</time>
      </trkpt>
      <trkpt lat="43.45519" lon="3.16797">
        <ele>64.8</ele>
        <time>2021-09-05T12:58:21Z</time>
      </trkpt>
      <trkpt lat="43.45473" lon="3.16784">
        <ele>64.3</ele>
        <time>2021-09-05T12:58:29Z</time>
      </trkpt>
      <trkpt lat="43.45326" lon="3.16724">
        <ele>63.5</ele>
        <time>2021-09-05T12:59:19Z</time>
      </trkpt>
      <trkpt lat="43.45276" lon="3.16711">
        <ele>62.5</ele>
        <time>2021-09-05T12:59:29Z</time>
      </trkpt>
      <trkpt lat="43.45214" lon="3.16677">
        <ele>61.3</ele>
        <time>2021-09-05T12:59:32Z</time>
      </trkpt>
      <trkpt lat="43.45055" lon="3.16591">
        <ele>56.9</ele>
        <time>2021-09-05T12:59:53Z</time>
      </trkpt>
      <trkpt lat="43.45099" lon="3.1699">
        <ele>62.4</ele>
      </trkpt>
      <trkpt lat="43.44772" lon="3.16544">
        <ele>53.3</ele>
        <time>2021-09-05T13:00:46Z</time>
      </trkpt>
      <trkpt lat="43.447" lon="3.16436">
        <ele>53.5</ele>
      </trkpt>
      <trkpt lat="43.44785" lon="3.17203">
        <ele>66</ele>
        <time>2021-09-05T13:01:15Z</time>
      </trkpt>
      <trkpt lat="43.44769" lon="3.17184">
        <ele>66.4</ele>
        <time>2021-09-05T13:01:20Z</time>
      </trkpt>
      <trkpt lat="43.44713" lon="3.17126">
        <ele>67.2</ele>
        <time>2021-09-05T13:01:35Z</time>
      </trkpt>
      <trkpt lat="43.44691" lon="3.17094">
        <ele>67.2</ele>
        <time>2021-09-05T13:01:42Z</time>
      </trkpt>
      <trkpt lat="43.44686" lon="3.17077">
        <ele>67.4</ele>
        <time>2021-09-05T13:01:45Z</time>
      </trkpt>
      <trkpt lat="43.44664" lon="3.16969">
        <ele>68</ele>
        <time>2021-09-05T13:02:06Z</time>
      </trkpt>
      <trkpt lat="43.44646" lon="3.16947">
        <ele>68</ele>
        <time>2021-09-05T13:02:12Z</time>
      </trkpt>
      <trkpt lat="43.44626" lon="3.16924">
        <ele>68.2</ele>
        <time>2021-09-05T13:02:21Z</time>
      </trkpt>
      <trkpt lat="43.44619" lon="3.16916">
        <ele>68.2</ele>
        <time>2021-09-05T13:02:23Z</time>
      </trkpt>
      <trkpt lat="43.44605" lon="3.169">
        <ele>68.2</ele>
        <time>2021-09-05T13:02:27Z</time>
      </trkpt>
      <trkpt lat="43.44601" lon="3.16896">
        <ele>68.2</ele>
        <time>2021-09-05T13:02:28Z</time>
      </trkpt>
      <trkpt lat="43.44589" lon="3.16878">
        <ele>68</ele>
        <time>2021-09-05T13:02:32Z</time>
      </trkpt>
      <trkpt lat="43.4458" lon="3.16876">
        <ele>67.8</ele>
        <time>2021-09-05T13:02:35Z</time>
      </trkpt>
      <trkpt lat="43.44579" lon="3.16879">
        <ele>67.8</ele>
        <time>2021-09-05T13:02:36Z</time>
      </trkpt>
      <trkpt lat="43.44572" lon="3.16936">
        <ele>68.2</ele>
        <time>2021-09-05T13:02:46Z</time>
      </trkpt>
      <trkpt lat="43.44569" lon="3.16957">
        <ele>68.4</ele>
        <time>2021-09-05T13:02:51Z</time>
      </trkpt>
      <trkpt lat="43.44559" lon="3.16961">
        <ele>68.8</ele>
        <time>2021-09-05T13:02:54Z</time>
      </trkpt>
      <trkpt lat="43.44555" lon="3.16959">
        <ele>68.8</ele>
        <time>2021-09-05T13:02:55Z</time>
      </trkpt>
      <trkpt lat="43.44544" lon="3.16948">
        <ele>69</ele>
        <time>2021-09-05T13:02:58Z</time>
      </trkpt>
      <trkpt lat="43.44518" lon="3.1692">
        <ele>69.4</ele>
        <time>2021-09-05T13:03:05Z</time>
      </trkpt>
      <trkpt lat="43.44479" lon="3.16879">
        <ele>70.4</ele>
        <time>2021-09-05T13:03:17Z</time>
      </trkpt>
      <trkpt lat="43.4447" lon="3.16899">
        <ele>71.2</ele>
        <time>2021-09-05T13:03:23Z</time>
      </trkpt>
      <trkpt lat="43.44459" lon="3.16924">
        <ele>71.8</ele>
        <time>2021-09-05T13:03:30Z</time>
      </trkpt>
      <trkpt lat="43.44433" lon="3.16974">
        <ele>73.8</ele>
        <time>2021-09-05T13:03:44Z</time>
      </trkpt>
      <trkpt lat="43.44429" lon="3.16996">
        <ele>74.8</ele>
        <time>2021-09-05T13:03:50Z</time>
      </trkpt>
      <trkpt lat="43.44422" lon="3.17052">
        <ele>76.8</ele>
        <time>2021-09-05T13:04:04Z</time>
      </trkpt>
      <trkpt lat="43.44416" lon="3.17079">
        <ele>78</ele>
        <time>2021-09-05T13:04:11Z</time>
      </trkpt>
      <trkpt lat="43.44411" lon="3.17102">
        <ele>79.4</ele>
        <time>2021-09-05T13:04:19Z</time>
      </trkpt>
      <trkpt lat="43.44406" lon="3.17136">
        <ele>81.4</ele>
        <time>2021-09-05T13:04:29Z</time>
      </trkpt>
      <trkpt lat="43.44403" lon="3.1715">
        <ele>82.2</ele>
        <time>2021-09-05T13:04:33Z</time>
      </trkpt>
      <trkpt lat="43.44393" lon="3.17191">
        <ele>84.2</ele>
        <time>2021-09-05T13:04:44Z</time>
      </trkpt>
      <trkpt lat="43.4439" lon="3.17213">
        <ele>85.4</ele>
        <time>2021-09-05T13:04:50Z</time>
      </trkpt>
      <trkpt lat="43.44393" lon="3.17258">
        <ele>88</ele>
        <time>2021-09-05T13:05:01Z</time>
      </trkpt>
      <trkpt lat="43.44386" lon="3.17277">
        <ele>89.4</ele>
        <time>2021-09-05T13:05:06Z</time>
      </trkpt>
      <trkpt lat="43.44361" lon="3.17327">
        <ele>92.6</ele>
        <time>2021-09-05T13:05:20Z</time>
      </trkpt>
      <trkpt lat="43.44331" lon="3.1738">
        <ele>96</ele>
        <time>2021-09-05T13:05:34Z</time>
      </trkpt>
      <trkpt lat="43.44315" lon="3.17401">
        <ele>97.8</ele>
        <time>2021-09-05T13:05:41Z</time>
      </trkpt>
      <trkpt lat="43.44296" lon="3.17453">
        <ele>100.4</ele>
        <time>2021-09-05T13:05:53Z</time>
      </trkpt>
      <trkpt lat="43.44288" lon="3.17474">
        <ele>101.8</ele>
        <time>2021-09-05T13:05:59Z</time>
      </trkpt>
      <trkpt lat="43.44293" lon="3.17525">
        <ele>105</ele>
        <time>2021-09-05T13:06:11Z</time>
      </trkpt>
      <trkpt lat="43.44295" lon="3.17555">
        <ele>107</ele>
        <time>2021-09-05T13:06:18Z</time>
      </trkpt>
      <trkpt lat="43.44314" lon="3.17592">
        <ele>110</ele>
        <time>2021-09-05T13:06:28Z</time>
      </trkpt>
      <trkpt lat="43.44332" lon="3.17622">
        <ele>111.8</ele>
        <time>2021-09-05T13:06:35Z</time>
      </trkpt>
      <trkpt lat="43.44358" lon="3.17655">
        <ele>114</ele>
        <time>2021-09-05T13:06:45Z</time>
      </trkpt>
      <trkpt lat="43.444" lon="3.17709">
        <ele>118</ele>
        <time>2021-09-05T13:07:01Z</time>
      </trkpt>
      <trkpt lat="43.44418" lon="3.17724">
        <ele>118.8</ele>
        <time>2021-09-05T13:07:06Z</time>
      </trkpt>
      <trkpt lat="43.44469" lon="3.17765">
        <ele>120.2</ele>
        <time>2021-09-05T13:07:18Z</time>
      </trkpt>
      <trkpt lat="43.44474" lon="3.17772">
        <ele>120.8</ele>
        <time>2021-09-05T13:07:21Z</time>
      </trkpt>
      <trkpt lat="43.44478" lon="3.17774">
        <ele>121</ele>
        <time>2021-09-05T13:07:23Z</time>
      </trkpt>
      <trkpt lat="43.44479" lon="3.17782">
        <ele>121.2</ele>
        <time>2021-09-05T13:07:25Z</time>
      </trkpt>
      <trkpt lat="43.44476" lon="3.17788">
        <ele>121.8</ele>
        <time>2021-09-05T13:07:28Z</time>
      </trkpt>
      <trkpt lat="43.44476" lon="3.17788">
        <ele>123.6</ele>
        <time>2021-09-05T13:07:45Z</time>
      </trkpt>
      <trkpt lat="43.44469" lon="3.1779">
        <ele>124</ele>
        <time>2021-09-05T13:07:49Z</time>
      </trkpt>
      <trkpt lat="43.44439" lon="3.17807">
        <ele>125.8</ele>
        <time>2021-09-05T13:07:59Z</time>
      </trkpt>
      <trkpt lat="43.44426" lon="3.17816">
        <ele>126.8</ele>
        <time>2021-09-05T13:08:04Z</time>
      </trkpt>
      <trkpt lat="43.44386" lon="3.17853">
        <ele>129.4</ele>
        <time>2021-09-05T13:08:18Z</time>
      </trkpt>
      <trkpt lat="43.44373" lon="3.17879">
        <ele>130.2</ele>
        <time>2021-09-05T13:08:24Z</time>
      </trkpt>
      <trkpt lat="43.44336" lon="3.17931">
        <ele>131.4</ele>
        <time>2021-09-05T13:08:37Z</time>
      </trkpt>
      <trkpt lat="43.44304" lon="3.17992">
        <ele>132.4</ele>
        <time>2021-09-05T13:08:50Z</time>
      </trkpt>
      <trkpt lat="43.44294" lon="3.18011">
        <ele>132.8</ele>
        <time>2021-09-05T13:08:54Z</time>
      </trkpt>
      <trkpt lat="43.44272" lon="3.18052">
        <ele>133.2</ele>
        <time>2021-09-05T13:09:03Z</time>
      </trkpt>
      <trkpt lat="43.4426" lon="3.18087">
        <ele>133.6</ele>
        <time>2021-09-05T13:09:10Z</time>
      </trkpt>
      <trkpt lat="43.44236" lon="3.18132">
        <ele>134.2</ele>
        <time>2021-09-05T13:09:20Z</time>
      </trkpt>
      <trkpt lat="43.44227" lon="3.18141">
        <ele>134.4</ele>
        <time>2021-09-05T13:09:23Z</time>
      </trkpt>
      <trkpt lat="43.44182" lon="3.18197">
        <ele>135.4</ele>
        <time>2021-09-05T13:09:38Z</time>
      </trkpt>
      <trkpt lat="43.44166" lon="3.18233">
        <ele>135.6</ele>
        <time>2021-09-05T13:09:45Z</time>
      </trkpt>
      <trkpt lat="43.4415" lon="3.1826">
        <ele>136</ele>
        <time>2021-09-05T13:09:52Z</time>
      </trkpt>
      <trkpt lat="43.44136" lon="3.18249">
        <ele>136.6</ele>
        <time>2021-09-05T13:09:58Z</time>
      </trkpt>
      <trkpt lat="43.44134" lon="3.18246">
        <ele>136.6</ele>
        <time>2021-09-05T13:09:59Z</time>
      </trkpt>
      <trkpt lat="43.44131" lon="3.18244">
        <ele>136.8</ele>
        <time>2021-09-05T13:10:02Z</time>
      </trkpt>
      <trkpt lat="43.4413" lon="3.18246">
        <ele>137</ele>
        <time>2021-09-05T13:10:07Z</time>
      </trkpt>
      <trkpt lat="43.4413" lon="3.18246">
        <ele>138</ele>
        <time>2021-09-05T13:10:33Z</time>
      </trkpt>
      <trkpt lat="43.44131" lon="3.18259">
        <ele>138</ele>
        <time>2021-09-05T13:10:37Z</time>
      </trkpt>
      <trkpt lat="43.44135" lon="3.18275">
        <ele>138</ele>
        <time>2021-09-05T13:10:42Z</time>
      </trkpt>
      <trkpt lat="43.44162" lon="3.18265">
        <ele>137.6</ele>
        <time>2021-09-05T13:10:50Z</time>
      </trkpt>
      <trkpt lat="43.44176" lon="3.18255">
        <ele>137.4</ele>
        <time>2021-09-05T13:10:53Z</time>
      </trkpt>
      <trkpt lat="43.44196" lon="3.18248">
        <ele>137</ele>
        <time>2021-09-05T13:10:58Z</time>
      </trkpt>
      <trkpt lat="43.44208" lon="3.18241">
        <ele>136.6</ele>
        <time>2021-09-05T13:11:01Z</time>
      </trkpt>
      <trkpt lat="43.44228" lon="3.18223">
        <ele>135.8</ele>
        <time>2021-09-05T13:11:06Z</time>
      </trkpt>
      <trkpt lat="43.44251" lon="3.18186">
        <ele>134.8</ele>
        <time>2021-09-05T13:11:13Z</time>
      </trkpt>
      <trkpt lat="43.4428" lon="3.18148">
        <ele>133.8</ele>
        <time>2021-09-05T13:11:22Z</time>
      </trkpt>
      <trkpt lat="43.44282" lon="3.18146">
        <ele>133.6</ele>
        <time>2021-09-05T13:11:23Z</time>
      </trkpt>
      <trkpt lat="43.44288" lon="3.18136">
        <ele>132.8</ele>
        <time>2021-09-05T13:11:31Z</time>
      </trkpt>
      <trkpt lat="43.44289" lon="3.18135">
        <ele>130.6</ele>
        <time>2021-09-05T13:12:01Z</time>
      </trkpt>
      <trkpt lat="43.44294" lon="3.18128">
        <ele>130.4</ele>
        <time>2021-09-05T13:12:06Z</time>
      </trkpt>
      <trkpt lat="43.44307" lon="3.18121">
        <ele>130</ele>
        <time>2021-09-05T13:12:10Z</time>
      </trkpt>
      <trkpt lat="43.44317" lon="3.18119">
        <ele>129.8</ele>
        <time>2021-09-05T13:12:12Z</time>
      </trkpt>
      <trkpt lat="43.4434" lon="3.18106">
        <ele>129</ele>
        <time>2021-09-05T13:12:17Z</time>
      </trkpt>
      <trkpt lat="43.44348" lon="3.18098">
        <ele>128.8</ele>
        <time>2021-09-05T13:12:19Z</time>
      </trkpt>
      <trkpt lat="43.44373" lon="3.18071">
        <ele>127.8</ele>
        <time>2021-09-05T13:12:26Z</time>
      </trkpt>
      <trkpt lat="43.44384" lon="3.18077">
        <ele>127.2</ele>
        <time>2021-09-05T13:12:29Z</time>
      </trkpt>
      <trkpt lat="43.44406" lon="3.18098">
        <ele>125.2</ele>
        <time>2021-09-05T13:12:36Z</time>
      </trkpt>
      <trkpt lat="43.44441" lon="3.18109">
        <ele>121.4</ele>
        <time>2021-09-05T13:12:46Z</time>
      </trkpt>
      <trkpt lat="43.44445" lon="3.18107">
        <ele>121</ele>
        <time>2021-09-05T13:12:47Z</time>
      </trkpt>
      <trkpt lat="43.44464" lon="3.1809">
        <ele>119.2</ele>
        <time>2021-09-05T13:12:52Z</time>
      </trkpt>
      <trkpt lat="43.44474" lon="3.18089">
        <ele>118.4</ele>
        <time>2021-09-05T13:12:54Z</time>
      </trkpt>
      <trkpt lat="43.44499" lon="3.18083">
        <ele>116.6</ele>
        <time>2021-09-05T13:12:59Z</time>
      </trkpt>
      <trkpt lat="43.44515" lon="3.18064">
        <ele>115.2</ele>
        <time>2021-09-05T13:13:03Z</time>
      </trkpt>
      <trkpt lat="43.44545" lon="3.18025">
        <ele>112.8</ele>
        <time>2021-09-05T13:13:10Z</time>
      </trkpt>
      <trkpt lat="43.44564" lon="3.18004">
        <ele>110.6</ele>
        <time>2021-09-05T13:13:17Z</time>
      </trkpt>
      <trkpt lat="43.44568" lon="3.18006">
        <ele>110.4</ele>
        <time>2021-09-05T13:13:18Z</time>
      </trkpt>
      <trkpt lat="43.44578" lon="3.18022">
        <ele>109</ele>
        <time>2021-09-05T13:13:22Z</time>
      </trkpt>
      <trkpt lat="43.44601" lon="3.18057">
        <ele>106.2</ele>
        <time>2021-09-05T13:13:30Z</time>
      </trkpt>
      <trkpt lat="43.44631" lon="3.18082">
        <ele>102.6</ele>
        <time>2021-09-05T13:13:41Z</time>
      </trkpt>
      <trkpt lat="43.4465" lon="3.18083">
        <ele>101</ele>
        <time>2021-09-05T13:13:46Z</time>
      </trkpt>
      <trkpt lat="43.44683" lon="3.18112">
        <ele>96.8</ele>
        <time>2021-09-05T13:13:58Z</time>
      </trkpt>
      <trkpt lat="43.44694" lon="3.18124">
        <ele>95</ele>
        <time>2021-09-05T13:14:02Z</time>
      </trkpt>
      <trkpt lat="43.44709" lon="3.18143">
        <ele>93</ele>
        <time>2021-09-05T13:14:07Z</time>
      </trkpt>
      <trkpt lat="43.44763" lon="3.18187">
        <ele>88.2</ele>
        <time>2021-09-05T13:14:21Z</time>
      </trkpt>
      <trkpt lat="43.4477" lon="3.18194">
        <ele>86.8</ele>
        <time>2021-09-05T13:14:25Z</time>
      </trkpt>
      <trkpt lat="43.4477" lon="3.18194">
        <ele>81.8</ele>
        <time>2021-09-05T13:14:46Z</time>
      </trkpt>
      <trkpt lat="43.4477" lon="3.18194">
        <ele>81.2</ele>
        <time>2021-09-05T13:14:48Z</time>
      </trkpt>
      <trkpt lat="43.44776" lon="3.1817">
        <ele>80.2</ele>
        <time>2021-09-05T13:14:55Z</time>
      </trkpt>
      <trkpt lat="43.44796" lon="3.18059">
        <ele>78.2</ele>
        <time>2021-09-05T13:15:11Z</time>
      </trkpt>
      <trkpt lat="43.44798" lon="3.18052">
        <ele>78</ele>
        <time>2021-09-05T13:15:12Z</time>
      </trkpt>
      <trkpt lat="43.44799" lon="3.18025">
        <ele>77.6</ele>
        <time>2021-09-05T13:15:16Z</time>
      </trkpt>
      <trkpt lat="43.44798" lon="3.18017">
        <ele>77.6</ele>
        <time>2021-09-05T13:15:17Z</time>
      </trkpt>
      <trkpt lat="43.44788" lon="3.17986">
        <ele>77</ele>
        <time>2021-09-05T13:15:22Z</time>
      </trkpt>
      <trkpt lat="43.44776" lon="3.17953">
        <ele>76.6</ele>
        <time>2021-09-05T13:15:28Z</time>
      </trkpt>
      <trkpt lat="43.44755" lon="3.17851">
        <ele>76.6</ele>
        <time>2021-09-05T13:15:45Z</time>
      </trkpt>
      <trkpt lat="43.44763" lon="3.17756">
        <ele>77.2</ele>
        <time>2021-09-05T13:15:59Z</time>
      </trkpt>
      <trkpt lat="43.4476" lon="3.17705">
        <ele>77</ele>
        <time>2021-09-05T13:16:05Z</time>
      </trkpt>
      <trkpt lat="43.44763" lon="3.17604">
        <ele>76.8</ele>
        <time>2021-09-05T13:16:18Z</time>
      </trkpt>
      <trkpt lat="43.44766" lon="3.17546">
        <ele>76.2</ele>
        <time>2021-09-05T13:16:25Z</time>
      </trkpt>
      <trkpt lat="43.44775" lon="3.17454">
        <ele>75</ele>
        <time>2021-09-05T13:16:36Z</time>
      </trkpt>
      <trkpt lat="43.44785" lon="3.17392">
        <ele>74.2</ele>
        <time>2021-09-05T13:16:44Z</time>
      </trkpt>
      <trkpt lat="43.44795" lon="3.17331">
        <ele>73.6</ele>
        <time>2021-09-05T13:16:52Z</time>
      </trkpt>
      <trkpt lat="43.44802" lon="3.17275">
        <ele>73</ele>
        <time>2021-09-05T13:16:59Z</time>
      </trkpt>
      <trkpt lat="43.448" lon="3.17238">
        <ele>72.6</ele>
        <time>2021-09-05T13:17:04Z</time>
      </trkpt>
      <trkpt lat="43.44788" lon="3.17225">
        <ele>72.2</ele>
        <time>2021-09-05T13:17:07Z</time>
      </trkpt>
      <trkpt lat="43.44782" lon="3.17216">
        <ele>72</ele>
        <time>2021-09-05T13:17:09Z</time>
      </trkpt>
      <trkpt lat="43.44774" lon="3.17194">
        <ele>71.6</ele>
        <time>2021-09-05T13:17:15Z</time>
      </trkpt>
      <trkpt lat="43.44774" lon="3.17192">
        <ele>71.6</ele>
        <time>2021-09-05T13:17:16Z</time>
      </trkpt>
      <trkpt lat="43.44766" lon="3.17182">
        <ele>71.2</ele>
        <time>2021-09-05T13:17:22Z</time>
      </trkpt>
      <trkpt lat="43.44766" lon="3.17183">
        <ele>71.2</ele>
        <time>2021-09-05T13:17:23Z</time>
      </trkpt>
      <trkpt lat="43.44787" lon="3.17207">
        <ele>70.8</ele>
        <time>2021-09-05T13:17:30Z</time>
      </trkpt>
      <trkpt lat="43.44613" lon="3.16634">
        <ele>59.7</ele>
      </trkpt>
      <trkpt lat="43.44535" lon="3.16587">
        <ele>58</ele>
      </trkpt>
      <trkpt lat="43.44423" lon="3.16501">
        <ele>52.1</ele>
      </trkpt>
      <trkpt lat="43.44497" lon="3.16183">
        <ele>58.4</ele>
      </trkpt>
      <trkpt lat="43.44918" lon="3.16561">
        <ele>54.7</ele>
        <time>2021-09-05T13:18:09Z</time>
      </trkpt>
      <trkpt lat="43.45038" lon="3.17383">
        <ele>67</ele>
        <time>2021-09-05T13:18:16Z</time>
      </trkpt>
      <trkpt lat="43.44896" lon="3.17466">
        <ele>67.8</ele>
        <time>2021-09-05T13:18:17Z</time>
      </trkpt>
      <trkpt lat="43.44949" lon="3.17689">
        <ele>65.8</ele>
        <time>2021-09-05T13:20:37Z</time>
      </trkpt>
      <trkpt lat="43.44859" lon="3.18239">
        <ele>69.3</ele>
        <time>2021-09-05T13:20:41Z</time>
      </trkpt>
      <trkpt lat="43.44881" lon="3.18247">
        <ele>68.9</ele>
      </trkpt>
      <trkpt lat="43.44884" lon="3.18307">
        <ele>67.7</ele>
      </trkpt>
      <trkpt lat="43.44901" lon="3.18709">
        <ele>73.7</ele>
      </trkpt>
      <trkpt lat="43.45152" lon="3.18582">
        <ele>77.2</ele>
      </trkpt>
      <trkpt lat="43.45198" lon="3.18552">
        <ele>77.8</ele>
      </trkpt>
      <trkpt lat="43.45228" lon="3.18466">
        <ele>76.3</ele>
      </trkpt>
      <trkpt lat="43.45353" lon="3.18455">
        <ele>79.2</ele>
        <time>2021-09-05T13:27:38Z</time>
      </trkpt>
      <trkpt lat="43.45363" lon="3.18459">
        <ele>79.4</ele>
        <time>2021-09-05T13:27:41Z</time>
      </trkpt>
      <trkpt lat="43.45396" lon="3.18453">
        <ele>79.6</ele>
        <time>2021-09-05T13:27:48Z</time>
      </trkpt>
      <trkpt lat="43.45423" lon="3.18449">
        <ele>80</ele>
        <time>2021-09-05T13:27:54Z</time>
      </trkpt>
      <trkpt lat="43.45479" lon="3.1844">
        <ele>80.4</ele>
        <time>2021-09-05T13:28:06Z</time>
      </trkpt>
      <trkpt lat="43.45502" lon="3.18437">
        <ele>80.4</ele>
        <time>2021-09-05T13:28:11Z</time>
      </trkpt>
      <trkpt lat="43.45567" lon="3.18446">
        <ele>79.8</ele>
        <time>2021-09-05T13:28:22Z</time>
      </trkpt>
      <trkpt lat="43.45617" lon="3.18472">
        <ele>79.2</ele>
        <time>2021-09-05T13:28:30Z</time>
      </trkpt>
      <trkpt lat="43.45656" lon="3.18482">
        <ele>78.6</ele>
        <time>2021-09-05T13:28:36Z</time>
      </trkpt>
      <trkpt lat="43.45701" lon="3.18482">
        <ele>78</ele>
        <time>2021-09-05T13:28:43Z</time>
      </trkpt>
      <trkpt lat="43.45762" lon="3.18494">
        <ele>77</ele>
        <time>2021-09-05T13:28:53Z</time>
      </trkpt>
      <trkpt lat="43.45776" lon="3.18506">
        <ele>76.8</ele>
        <time>2021-09-05T13:28:56Z</time>
      </trkpt>
      <trkpt lat="43.45792" lon="3.18514">
        <ele>76.4</ele>
        <time>2021-09-05T13:29:00Z</time>
      </trkpt>
      <trkpt lat="43.45806" lon="3.18508">
        <ele>76</ele>
        <time>2021-09-05T13:29:04Z</time>
      </trkpt>
      <trkpt lat="43.45816" lon="3.18503">
        <ele>75.4</ele>
        <time>2021-09-05T13:29:09Z</time>
      </trkpt>
      <trkpt lat="43.45838" lon="3.18494">
        <ele>74.6</ele>
        <time>2021-09-05T13:29:21Z</time>
      </trkpt>
      <trkpt lat="43.45855" lon="3.18485">
        <ele>74</ele>
        <time>2021-09-05T13:29:29Z</time>
      </trkpt>
      <trkpt lat="43.45891" lon="3.1847">
        <ele>73.4</ele>
        <time>2021-09-05T13:29:44Z</time>
      </trkpt>
      <trkpt lat="43.45909" lon="3.18464">
        <ele>73.2</ele>
        <time>2021-09-05T13:29:49Z</time>
      </trkpt>
      <trkpt lat="43.45928" lon="3.18454">
        <ele>73</ele>
        <time>2021-09-05T13:29:54Z</time>
      </trkpt>
      <trkpt lat="43.45958" lon="3.1842">
        <ele>72.6</ele>
        <time>2021-09-05T13:30:02Z</time>
      </trkpt>
      <trkpt lat="43.45979" lon="3.18401">
        <ele>72.4</ele>
        <time>2021-09-05T13:30:08Z</time>
      </trkpt>
      <trkpt lat="43.46009" lon="3.18437">
        <ele>71.8</ele>
        <time>2021-09-05T13:30:17Z</time>
      </trkpt>
      <trkpt lat="43.4603" lon="3.18456">
        <ele>71.6</ele>
        <time>2021-09-05T13:30:22Z</time>
      </trkpt>
      <trkpt lat="43.46039" lon="3.18457">
        <ele>71.6</ele>
        <time>2021-09-05T13:30:24Z</time>
      </trkpt>
      <trkpt lat="43.46047" lon="3.1845">
        <ele>71.6</ele>
        <time>2021-09-05T13:30:26Z</time>
      </trkpt>
      <trkpt lat="43.46119" lon="3.18378">
        <ele>71.4</ele>
        <time>2021-09-05T13:30:43Z</time>
      </trkpt>
      <trkpt lat="43.46202" lon="3.18306">
        <ele>71.8</ele>
        <time>2021-09-05T13:31:01Z</time>
      </trkpt>
      <trkpt lat="43.46243" lon="3.18268">
        <ele>72.2</ele>
        <time>2021-09-05T13:31:10Z</time>
      </trkpt>
      <trkpt lat="43.46267" lon="3.18249">
        <ele>72.2</ele>
        <time>2021-09-05T13:31:15Z</time>
      </trkpt>
      <trkpt lat="43.46313" lon="3.1821">
        <ele>72.6</ele>
        <time>2021-09-05T13:31:25Z</time>
      </trkpt>
      <trkpt lat="43.46363" lon="3.18167">
        <ele>73.2</ele>
        <time>2021-09-05T13:31:36Z</time>
      </trkpt>
      <trkpt lat="43.46388" lon="3.18145">
        <ele>73.6</ele>
        <time>2021-09-05T13:31:42Z</time>
      </trkpt>
      <trkpt lat="43.46454" lon="3.18087">
        <ele>75</ele>
        <time>2021-09-05T13:31:59Z</time>
      </trkpt>
      <trkpt lat="43.46462" lon="3.18081">
        <ele>75</ele>
        <time>2021-09-05T13:32:01Z</time>
      </trkpt>
      <trkpt lat="43.4653" lon="3.1802">
        <ele>76.6</ele>
        <time>2021-09-05T13:32:19Z</time>
      </trkpt>
      <trkpt lat="43.46548" lon="3.18009">
        <ele>77.2</ele>
        <time>2021-09-05T13:32:24Z</time>
      </trkpt>
      <trkpt lat="43.46556" lon="3.18009">
        <ele>77.4</ele>
        <time>2021-09-05T13:32:26Z</time>
      </trkpt>
      <trkpt lat="43.46607" lon="3.17985">
        <ele>79</ele>
        <time>2021-09-05T13:32:38Z</time>
      </trkpt>
      <trkpt lat="43.46641" lon="3.17964">
        <ele>80</ele>
        <time>2021-09-05T13:32:46Z</time>
      </trkpt>
      <trkpt lat="43.46673" lon="3.17941">
        <ele>80.8</ele>
        <time>2021-09-05T13:32:54Z</time>
      </trkpt>
      <trkpt lat="43.46695" lon="3.17923">
        <ele>82</ele>
        <time>2021-09-05T13:33:01Z</time>
      </trkpt>
      <trkpt lat="43.46724" lon="3.17903">
        <ele>83.8</ele>
        <time>2021-09-05T13:33:12Z</time>
      </trkpt>
      <trkpt lat="43.4675" lon="3.17876">
        <ele>85.2</ele>
        <time>2021-09-05T13:33:24Z</time>
      </trkpt>
      <trkpt lat="43.46758" lon="3.17882">
        <ele>85.4</ele>
        <time>2021-09-05T13:33:27Z</time>
      </trkpt>
      <trkpt lat="43.46782" lon="3.17919">
        <ele>86.4</ele>
        <time>2021-09-05T13:33:36Z</time>
      </trkpt>
      <trkpt lat="43.46785" lon="3.17924">
        <ele>86.4</ele>
        <time>2021-09-05T13:33:37Z</time>
      </trkpt>
      <trkpt lat="43.46805" lon="3.17956">
        <ele>87.2</ele>
        <time>2021-09-05T13:33:44Z</time>
      </trkpt>
      <trkpt lat="43.46815" lon="3.17973">
        <ele>87.4</ele>
        <time>2021-09-05T13:33:48Z</time>
      </trkpt>
      <trkpt lat="43.46824" lon="3.17985">
        <ele>87.6</ele>
        <time>2021-09-05T13:33:51Z</time>
      </trkpt>
      <trkpt lat="43.46841" lon="3.17993">
        <ele>88</ele>
        <time>2021-09-05T13:33:55Z</time>
      </trkpt>
      <trkpt lat="43.46848" lon="3.17992">
        <ele>88.2</ele>
        <time>2021-09-05T13:33:57Z</time>
      </trkpt>
      <trkpt lat="43.46876" lon="3.17963">
        <ele>89.2</ele>
        <time>2021-09-05T13:34:07Z</time>
      </trkpt>
      <trkpt lat="43.46887" lon="3.17949">
        <ele>89</ele>
        <time>2021-09-05T13:34:12Z</time>
      </trkpt>
      <trkpt lat="43.46894" lon="3.17937">
        <ele>88.8</ele>
        <time>2021-09-05T13:34:17Z</time>
      </trkpt>
      <trkpt lat="43.469" lon="3.17919">
        <ele>87.8</ele>
        <time>2021-09-05T13:34:23Z</time>
      </trkpt>
      <trkpt lat="43.469" lon="3.17908">
        <ele>92.2</ele>
        <time>2021-09-05T13:35:46Z</time>
      </trkpt>
      <trkpt lat="43.46903" lon="3.17899">
        <ele>92.4</ele>
        <time>2021-09-05T13:35:49Z</time>
      </trkpt>
      <trkpt lat="43.46905" lon="3.17883">
        <ele>92.4</ele>
        <time>2021-09-05T13:35:52Z</time>
      </trkpt>
      <trkpt lat="43.46899" lon="3.17844">
        <ele>92.4</ele>
        <time>2021-09-05T13:35:59Z</time>
      </trkpt>
      <trkpt lat="43.46896" lon="3.17831">
        <ele>92.4</ele>
        <time>2021-09-05T13:36:02Z</time>
      </trkpt>
      <trkpt lat="43.46912" lon="3.17814">
        <ele>92.4</ele>
        <time>2021-09-05T13:36:07Z</time>
      </trkpt>
      <trkpt lat="43.46942" lon="3.17784">
        <ele>91.8</ele>
        <time>2021-09-05T13:36:14Z</time>
      </trkpt>
      <trkpt lat="43.46946" lon="3.17781">
        <ele>92</ele>
        <time>2021-09-05T13:36:15Z</time>
      </trkpt>
      <trkpt lat="43.46972" lon="3.17781">
        <ele>92</ele>
        <time>2021-09-05T13:36:21Z</time>
      </trkpt>
      <trkpt lat="43.46973" lon="3.17787">
        <ele>92</ele>
        <time>2021-09-05T13:36:22Z</time>
      </trkpt>
      <trkpt lat="43.46981" lon="3.17839">
        <ele>91.8</ele>
        <time>2021-09-05T13:36:33Z</time>
      </trkpt>
      <trkpt lat="43.46981" lon="3.17842">
        <ele>91.8</ele>
        <time>2021-09-05T13:36:34Z</time>
      </trkpt>
      <trkpt lat="43.46975" lon="3.17857">
        <ele>92.6</ele>
        <time>2021-09-05T13:36:38Z</time>
      </trkpt>
      <trkpt lat="43.46966" lon="3.1788">
        <ele>92.4</ele>
        <time>2021-09-05T13:36:42Z</time>
      </trkpt>
      <trkpt lat="43.46952" lon="3.17926">
        <ele>92.6</ele>
        <time>2021-09-05T13:36:49Z</time>
      </trkpt>
      <trkpt lat="43.46935" lon="3.17991">
        <ele>93.2</ele>
        <time>2021-09-05T13:37:00Z</time>
      </trkpt>
      <trkpt lat="43.4693" lon="3.18019">
        <ele>93.4</ele>
        <time>2021-09-05T13:37:05Z</time>
      </trkpt>
      <trkpt lat="43.46933" lon="3.18028">
        <ele>93.6</ele>
        <time>2021-09-05T13:37:08Z</time>
      </trkpt>
      <trkpt lat="43.4694" lon="3.1803">
        <ele>93.6</ele>
        <time>2021-09-05T13:37:10Z</time>
      </trkpt>
      <trkpt lat="43.46954" lon="3.18036">
        <ele>94</ele>
        <time>2021-09-05T13:37:13Z</time>
      </trkpt>
      <trkpt lat="43.46967" lon="3.18045">
        <ele>94.2</ele>
        <time>2021-09-05T13:37:16Z</time>
      </trkpt>
      <trkpt lat="43.46986" lon="3.18058">
        <ele>94.6</ele>
        <time>2021-09-05T13:37:20Z</time>
      </trkpt>
      <trkpt lat="43.47031" lon="3.18091">
        <ele>95.6</ele>
        <time>2021-09-05T13:37:30Z</time>
      </trkpt>
      <trkpt lat="43.47045" lon="3.18093">
        <ele>96</ele>
        <time>2021-09-05T13:37:33Z</time>
      </trkpt>
      <trkpt lat="43.47097" lon="3.18075">
        <ele>97</ele>
        <time>2021-09-05T13:37:45Z</time>
      </trkpt>
      <trkpt lat="43.47105" lon="3.1807">
        <ele>97.2</ele>
        <time>2021-09-05T13:37:47Z</time>
      </trkpt>
      <trkpt lat="43.47152" lon="3.18048">
        <ele>98.6</ele>
        <time>2021-09-05T13:37:59Z</time>
      </trkpt>
      <trkpt lat="43.47176" lon="3.18039">
        <ele>99.6</ele>
        <time>2021-09-05T13:38:06Z</time>
      </trkpt>
      <trkpt lat="43.4719" lon="3.18045">
        <ele>112.4</ele>
      </trkpt>
      <trkpt lat="43.47202" lon="3.1807">
        <ele>101.2</ele>
        <time>2021-09-05T13:38:17Z</time>
      </trkpt>
      <trkpt lat="43.47221" lon="3.18102">
        <ele>103.2</ele>
        <time>2021-09-05T13:38:27Z</time>
      </trkpt>
      <trkpt lat="43.47243" lon="3.1812">
        <ele>104.4</ele>
        <time>2021-09-05T13:38:35Z</time>
      </trkpt>
      <trkpt lat="43.47251" lon="3.18116">
        <ele>105</ele>
        <time>2021-09-05T13:38:38Z</time>
      </trkpt>
      <trkpt lat="43.47267" lon="3.18109">
        <ele>106.2</ele>
        <time>2021-09-05T13:38:43Z</time>
      </trkpt>
      <trkpt lat="43.47336" lon="3.1807">
        <ele>109.8</ele>
        <time>2021-09-05T13:39:04Z</time>
      </trkpt>
      <trkpt lat="43.47363" lon="3.18051">
        <ele>111</ele>
        <time>2021-09-05T13:39:12Z</time>
      </trkpt>
      <trkpt lat="43.47403" lon="3.18018">
        <ele>113</ele>
        <time>2021-09-05T13:39:26Z</time>
      </trkpt>
      <trkpt lat="43.47435" lon="3.17996">
        <ele>114.4</ele>
        <time>2021-09-05T13:39:37Z</time>
      </trkpt>
      <trkpt lat="43.47455" lon="3.17986">
        <ele>115</ele>
        <time>2021-09-05T13:39:44Z</time>
      </trkpt>
      <trkpt lat="43.47457" lon="3.17985">
        <ele>116.4</ele>
        <time>2021-09-05T13:40:00Z</time>
      </trkpt>
      <trkpt lat="43.47458" lon="3.17986">
        <ele>117.6</ele>
        <time>2021-09-05T13:40:17Z</time>
      </trkpt>
      <trkpt lat="43.47458" lon="3.17986">
        <ele>118.6</ele>
        <time>2021-09-05T13:40:33Z</time>
      </trkpt>
      <trkpt lat="43.47458" lon="3.17986">
        <ele>119.2</ele>
        <time>2021-09-05T13:40:44Z</time>
      </trkpt>
      <trkpt lat="43.47461" lon="3.17981">
        <ele>120.2</ele>
        <time>2021-09-05T13:41:02Z</time>
      </trkpt>
      <trkpt lat="43.47462" lon="3.17979">
        <ele>120.2</ele>
        <time>2021-09-05T13:41:03Z</time>
      </trkpt>
      <trkpt lat="43.47481" lon="3.17951">
        <ele>120.4</ele>
        <time>2021-09-05T13:41:13Z</time>
      </trkpt>
      <trkpt lat="43.47499" lon="3.1791">
        <ele>120</ele>
        <time>2021-09-05T13:41:25Z</time>
      </trkpt>
      <trkpt lat="43.47513" lon="3.17881">
        <ele>119.4</ele>
        <time>2021-09-05T13:41:33Z</time>
      </trkpt>
      <trkpt lat="43.47523" lon="3.17839">
        <ele>118.2</ele>
        <time>2021-09-05T13:41:42Z</time>
      </trkpt>
      <trkpt lat="43.4752" lon="3.17828">
        <ele>118</ele>
        <time>2021-09-05T13:41:44Z</time>
      </trkpt>
      <trkpt lat="43.47529" lon="3.1777">
        <ele>116.8</ele>
        <time>2021-09-05T13:41:52Z</time>
      </trkpt>
      <trkpt lat="43.47535" lon="3.17728">
        <ele>115.8</ele>
        <time>2021-09-05T13:41:57Z</time>
      </trkpt>
      <trkpt lat="43.47548" lon="3.17634">
        <ele>114.2</ele>
        <time>2021-09-05T13:42:08Z</time>
      </trkpt>
      <trkpt lat="43.47571" lon="3.17521">
        <ele>112.2</ele>
        <time>2021-09-05T13:42:22Z</time>
      </trkpt>
      <trkpt lat="43.4758" lon="3.17495">
        <ele>111.6</ele>
        <time>2021-09-05T13:42:26Z</time>
      </trkpt>
      <trkpt lat="43.47589" lon="3.17473">
        <ele>111</ele>
        <time>2021-09-05T13:42:32Z</time>
      </trkpt>
      <trkpt lat="43.4759" lon="3.17471">
        <ele>111</ele>
        <time>2021-09-05T13:42:33Z</time>
      </trkpt>
      <trkpt lat="43.4761" lon="3.17469">
        <ele>110.4</ele>
        <time>2021-09-05T13:42:39Z</time>
      </trkpt>
      <trkpt lat="43.47647" lon="3.1746">
        <ele>110</ele>
        <time>2021-09-05T13:42:47Z</time>
      </trkpt>
      <trkpt lat="43.47726" lon="3.17438">
        <ele>109.2</ele>
        <time>2021-09-05T13:43:03Z</time>
      </trkpt>
      <trkpt lat="43.47776" lon="3.17424">
        <ele>109</ele>
        <time>2021-09-05T13:43:13Z</time>
      </trkpt>
      <trkpt lat="43.47868" lon="3.17405">
        <ele>109.2</ele>
        <time>2021-09-05T13:43:31Z</time>
      </trkpt>
      <trkpt lat="43.47947" lon="3.1739">
        <ele>109.6</ele>
        <time>2021-09-05T13:43:47Z</time>
      </trkpt>
      <trkpt lat="43.47987" lon="3.17375">
        <ele>109.8</ele>
        <time>2021-09-05T13:43:55Z</time>
      </trkpt>
      <trkpt lat="43.48153" lon="3.17303">
        <ele>116.3</ele>
        <time>2021-09-05T13:44:11Z</time>
      </trkpt>
      <trkpt lat="43.48156" lon="3.1729">
        <ele>116.5</ele>
      </trkpt>
      <trkpt lat="43.48158" lon="3.17274">
        <ele>116.7</ele>
        <time>2021-09-05T13:49:09Z</time>
      </trkpt>
      <trkpt lat="43.48184" lon="3.17176">
        <ele>118.2</ele>
      </trkpt>
      <trkpt lat="43.48238" lon="3.17053">
        <ele>117.8</ele>
        <time>2021-09-05T13:49:23Z</time>
      </trkpt>
      <trkpt lat="43.48253" lon="3.17014">
        <ele>118.2</ele>
        <time>2021-09-05T13:49:30Z</time>
      </trkpt>
      <trkpt lat="43.48273" lon="3.16973">
        <ele>119</ele>
        <time>2021-09-05T13:49:42Z</time>
      </trkpt>
      <trkpt lat="43.48276" lon="3.16971">
        <ele>119.2</ele>
        <time>2021-09-05T13:49:46Z</time>
      </trkpt>
      <trkpt lat="43.48276" lon="3.16971">
        <ele>119.8</ele>
        <time>2021-09-05T13:50:02Z</time>
      </trkpt>
      <trkpt lat="43.48276" lon="3.16964">
        <ele>120.2</ele>
        <time>2021-09-05T13:50:10Z</time>
      </trkpt>
      <trkpt lat="43.48282" lon="3.16943">
        <ele>120.4</ele>
        <time>2021-09-05T13:50:15Z</time>
      </trkpt>
      <trkpt lat="43.48299" lon="3.16885">
        <ele>120.8</ele>
        <time>2021-09-05T13:50:27Z</time>
      </trkpt>
      <trkpt lat="43.4831" lon="3.16849">
        <ele>120.8</ele>
        <time>2021-09-05T13:50:34Z</time>
      </trkpt>
      <trkpt lat="43.48331" lon="3.16795">
        <ele>120.4</ele>
        <time>2021-09-05T13:50:47Z</time>
      </trkpt>
      <trkpt lat="43.48334" lon="3.16791">
        <ele>120.2</ele>
        <time>2021-09-05T13:50:50Z</time>
      </trkpt>
      <trkpt lat="43.48344" lon="3.16769">
        <ele>119.6</ele>
        <time>2021-09-05T13:50:56Z</time>
      </trkpt>
      <trkpt lat="43.48387" lon="3.16697">
        <ele>117.6</ele>
        <time>2021-09-05T13:51:10Z</time>
      </trkpt>
      <trkpt lat="43.48407" lon="3.16654">
        <ele>116.2</ele>
        <time>2021-09-05T13:51:18Z</time>
      </trkpt>
      <trkpt lat="43.48415" lon="3.16656">
        <ele>115.8</ele>
        <time>2021-09-05T13:51:21Z</time>
      </trkpt>
      <trkpt lat="43.48424" lon="3.16665">
        <ele>115.4</ele>
        <time>2021-09-05T13:51:24Z</time>
      </trkpt>
      <trkpt lat="43.48454" lon="3.16705">
        <ele>114.4</ele>
        <time>2021-09-05T13:51:34Z</time>
      </trkpt>
      <trkpt lat="43.48457" lon="3.1671">
        <ele>114.2</ele>
        <time>2021-09-05T13:51:35Z</time>
      </trkpt>
      <trkpt lat="43.48484" lon="3.16758">
        <ele>112.6</ele>
        <time>2021-09-05T13:51:45Z</time>
      </trkpt>
      <trkpt lat="43.485" lon="3.16773">
        <ele>112</ele>
        <time>2021-09-05T13:51:51Z</time>
      </trkpt>
      <trkpt lat="43.4854" lon="3.16754">
        <ele>110.4</ele>
        <time>2021-09-05T13:52:01Z</time>
      </trkpt>
      <trkpt lat="43.48547" lon="3.16753">
        <ele>110.2</ele>
        <time>2021-09-05T13:52:03Z</time>
      </trkpt>
      <trkpt lat="43.48554" lon="3.1676">
        <ele>110</ele>
        <time>2021-09-05T13:52:05Z</time>
      </trkpt>
      <trkpt lat="43.48564" lon="3.16781">
        <ele>109.4</ele>
        <time>2021-09-05T13:52:09Z</time>
      </trkpt>
      <trkpt lat="43.48575" lon="3.16816">
        <ele>108.8</ele>
        <time>2021-09-05T13:52:15Z</time>
      </trkpt>
      <trkpt lat="43.48572" lon="3.16836">
        <ele>108.6</ele>
        <time>2021-09-05T13:52:20Z</time>
      </trkpt>
      <trkpt lat="43.48558" lon="3.16854">
        <ele>108.4</ele>
        <time>2021-09-05T13:52:25Z</time>
      </trkpt>
      <trkpt lat="43.48545" lon="3.16875">
        <ele>108.4</ele>
        <time>2021-09-05T13:52:30Z</time>
      </trkpt>
      <trkpt lat="43.48511" lon="3.16913">
        <ele>108.4</ele>
        <time>2021-09-05T13:52:42Z</time>
      </trkpt>
      <trkpt lat="43.48496" lon="3.16902">
        <ele>108.6</ele>
        <time>2021-09-05T13:52:47Z</time>
      </trkpt>
      <trkpt lat="43.48461" lon="3.16878">
        <ele>109.2</ele>
        <time>2021-09-05T13:52:59Z</time>
      </trkpt>
      <trkpt lat="43.48456" lon="3.16881">
        <ele>109.2</ele>
        <time>2021-09-05T13:53:01Z</time>
      </trkpt>
      <trkpt lat="43.48444" lon="3.16911">
        <ele>109.6</ele>
        <time>2021-09-05T13:53:09Z</time>
      </trkpt>
      <trkpt lat="43.48431" lon="3.16937">
        <ele>110.2</ele>
        <time>2021-09-05T13:53:16Z</time>
      </trkpt>
      <trkpt lat="43.4841" lon="3.17">
        <ele>111.4</ele>
        <time>2021-09-05T13:53:31Z</time>
      </trkpt>
      <trkpt lat="43.48399" lon="3.17032">
        <ele>112</ele>
        <time>2021-09-05T13:53:39Z</time>
      </trkpt>
      <trkpt lat="43.48402" lon="3.17038">
        <ele>112</ele>
        <time>2021-09-05T13:53:41Z</time>
      </trkpt>
      <trkpt lat="43.48455" lon="3.17065">
        <ele>112.2</ele>
        <time>2021-09-05T13:53:52Z</time>
      </trkpt>
      <trkpt lat="43.48499" lon="3.17086">
        <ele>112.6</ele>
        <time>2021-09-05T13:53:59Z</time>
      </trkpt>
      <trkpt lat="43.48601" lon="3.17143">
        <ele>110.6</ele>
        <time>2021-09-05T13:54:15Z</time>
      </trkpt>
      <trkpt lat="43.48633" lon="3.17156">
        <ele>109.6</ele>
        <time>2021-09-05T13:54:20Z</time>
      </trkpt>
      <trkpt lat="43.48689" lon="3.17141">
        <ele>107.6</ele>
        <time>2021-09-05T13:54:27Z</time>
      </trkpt>
      <trkpt lat="43.48724" lon="3.17124">
        <ele>106</ele>
        <time>2021-09-05T13:54:31Z</time>
      </trkpt>
      <trkpt lat="43.48764" lon="3.17099">
        <ele>104.6</ele>
        <time>2021-09-05T13:54:36Z</time>
      </trkpt>
      <trkpt lat="43.48809" lon="3.1709">
        <ele>104</ele>
        <time>2021-09-05T13:54:45Z</time>
      </trkpt>
      <trkpt lat="43.48832" lon="3.17086">
        <ele>103.8</ele>
        <time>2021-09-05T13:54:51Z</time>
      </trkpt>
      <trkpt lat="43.48866" lon="3.17089">
        <ele>103</ele>
        <time>2021-09-05T13:54:59Z</time>
      </trkpt>
      <trkpt lat="43.48879" lon="3.17101">
        <ele>102.6</ele>
        <time>2021-09-05T13:55:03Z</time>
      </trkpt>
      <trkpt lat="43.48892" lon="3.17106">
        <ele>102.4</ele>
        <time>2021-09-05T13:55:06Z</time>
      </trkpt>
      <trkpt lat="43.48896" lon="3.17106">
        <ele>102.4</ele>
        <time>2021-09-05T13:55:07Z</time>
      </trkpt>
      <trkpt lat="43.48971" lon="3.17095">
        <ele>102</ele>
        <time>2021-09-05T13:55:24Z</time>
      </trkpt>
      <trkpt lat="43.49025" lon="3.17103">
        <ele>102</ele>
        <time>2021-09-05T13:55:37Z</time>
      </trkpt>
      <trkpt lat="43.49048" lon="3.17108">
        <ele>102.2</ele>
        <time>2021-09-05T13:55:43Z</time>
      </trkpt>
      <trkpt lat="43.49059" lon="3.17119">
        <ele>102.4</ele>
        <time>2021-09-05T13:55:48Z</time>
      </trkpt>
      <trkpt lat="43.49066" lon="3.17152">
        <ele>102.6</ele>
        <time>2021-09-05T13:55:54Z</time>
      </trkpt>
      <trkpt lat="43.49084" lon="3.17224">
        <ele>103.6</ele>
        <time>2021-09-05T13:56:08Z</time>
      </trkpt>
      <trkpt lat="43.49099" lon="3.17263">
        <ele>104.2</ele>
        <time>2021-09-05T13:56:16Z</time>
      </trkpt>
      <trkpt lat="43.49138" lon="3.17358">
        <ele>106</ele>
        <time>2021-09-05T13:56:35Z</time>
      </trkpt>
      <trkpt lat="43.49174" lon="3.17445">
        <ele>107.8</ele>
        <time>2021-09-05T13:56:52Z</time>
      </trkpt>
      <trkpt lat="43.49188" lon="3.17485">
        <ele>108.6</ele>
        <time>2021-09-05T13:57:00Z</time>
      </trkpt>
      <trkpt lat="43.49216" lon="3.17557">
        <ele>110.2</ele>
        <time>2021-09-05T13:57:14Z</time>
      </trkpt>
      <trkpt lat="43.49285" lon="3.17613">
        <ele>115.3</ele>
        <time>2021-09-05T13:58:13Z</time>
      </trkpt>
      <trkpt lat="43.49309" lon="3.17648">
        <ele>115.4</ele>
        <time>2021-09-05T13:58:22Z</time>
      </trkpt>
      <trkpt lat="43.49342" lon="3.17689">
        <ele>116.4</ele>
        <time>2021-09-05T14:01:07Z</time>
      </trkpt>
      <trkpt lat="43.49374" lon="3.17725">
        <ele>117</ele>
        <time>2021-09-05T14:01:16Z</time>
      </trkpt>
      <trkpt lat="43.49436" lon="3.17801">
        <ele>117.6</ele>
        <time>2021-09-05T14:01:32Z</time>
      </trkpt>
      <trkpt lat="43.49477" lon="3.17857">
        <ele>118.4</ele>
        <time>2021-09-05T14:01:43Z</time>
      </trkpt>
      <trkpt lat="43.49538" lon="3.17936">
        <ele>119.4</ele>
        <time>2021-09-05T14:01:59Z</time>
      </trkpt>
      <trkpt lat="43.49559" lon="3.17957">
        <ele>119.6</ele>
        <time>2021-09-05T14:02:04Z</time>
      </trkpt>
      <trkpt lat="43.49595" lon="3.17994">
        <ele>119.8</ele>
        <time>2021-09-05T14:02:14Z</time>
      </trkpt>
      <trkpt lat="43.496" lon="3.18001">
        <ele>120</ele>
        <time>2021-09-05T14:02:16Z</time>
      </trkpt>
      <trkpt lat="43.49606" lon="3.18009">
        <ele>120</ele>
        <time>2021-09-05T14:02:18Z</time>
      </trkpt>
      <trkpt lat="43.49638" lon="3.1805">
        <ele>120.2</ele>
        <time>2021-09-05T14:02:26Z</time>
      </trkpt>
      <trkpt lat="43.49671" lon="3.18101">
        <ele>120.4</ele>
        <time>2021-09-05T14:02:34Z</time>
      </trkpt>
      <trkpt lat="43.49733" lon="3.18198">
        <ele>120.8</ele>
        <time>2021-09-05T14:02:50Z</time>
      </trkpt>
      <trkpt lat="43.49763" lon="3.18239">
        <ele>120.8</ele>
        <time>2021-09-05T14:02:57Z</time>
      </trkpt>
      <trkpt lat="43.49821" lon="3.18335">
        <ele>121.2</ele>
        <time>2021-09-05T14:03:13Z</time>
      </trkpt>
      <trkpt lat="43.49853" lon="3.18378">
        <ele>121.6</ele>
        <time>2021-09-05T14:03:21Z</time>
      </trkpt>
      <trkpt lat="43.49928" lon="3.18464">
        <ele>122.2</ele>
        <time>2021-09-05T14:03:38Z</time>
      </trkpt>
      <trkpt lat="43.49992" lon="3.18541">
        <ele>123</ele>
        <time>2021-09-05T14:03:53Z</time>
      </trkpt>
      <trkpt lat="43.50021" lon="3.18577">
        <ele>123.4</ele>
        <time>2021-09-05T14:04:00Z</time>
      </trkpt>
      <trkpt lat="43.5011" lon="3.18656">
        <ele>124.2</ele>
        <time>2021-09-05T14:04:14Z</time>
      </trkpt>
      <trkpt lat="43.50139" lon="3.1871">
        <ele>125.5</ele>
      </trkpt>
      <trkpt lat="43.50222" lon="3.18692">
        <ele>128.8</ele>
      </trkpt>
      <trkpt lat="43.50378" lon="3.1857">
        <ele>130.2</ele>
      </trkpt>
      <trkpt lat="43.50411" lon="3.18615">
        <ele>133.9</ele>
      </trkpt>
      <trkpt lat="43.50596" lon="3.18495">
        <ele>135.7</ele>
      </trkpt>
      <trkpt lat="43.50687" lon="3.186">
        <ele>134.6</ele>
      </trkpt>
      <trkpt lat="43.5089" lon="3.1831">
        <ele>137.5</ele>
      </trkpt>
      <trkpt lat="43.50581" lon="3.17934">
        <ele>147.4</ele>
      </trkpt>
      <trkpt lat="43.5035" lon="3.17779">
        <ele>151.7</ele>
      </trkpt>
      <trkpt lat="43.50242" lon="3.17669">
        <ele>151.4</ele>
      </trkpt>
      <trkpt lat="43.50153" lon="3.17491">
        <ele>153.1</ele>
      </trkpt>
      <trkpt lat="43.50052" lon="3.17383">
        <ele>150.4</ele>
      </trkpt>
      <trkpt lat="43.50022" lon="3.17313">
        <ele>151.7</ele>
      </trkpt>
      <trkpt lat="43.50104" lon="3.17265">
        <ele>156.7</ele>
      </trkpt>
      <trkpt lat="43.50127" lon="3.17266">
        <ele>157.7</ele>
      </trkpt>
      <trkpt lat="43.50239" lon="3.17249">
        <ele>161.8</ele>
      </trkpt>
      <trkpt lat="43.50319" lon="3.17197">
        <ele>167.7</ele>
      </trkpt>
      <trkpt lat="43.50474" lon="3.17137">
        <ele>173.5</ele>
      </trkpt>
      <trkpt lat="43.50646" lon="3.17099">
        <ele>167.8</ele>
      </trkpt>
      <trkpt lat="43.50658" lon="3.17094">
        <ele>167.5</ele>
      </trkpt>
      <trkpt lat="43.50665" lon="3.17036">
        <ele>166.5</ele>
      </trkpt>
      <trkpt lat="43.50711" lon="3.16998">
        <ele>166</ele>
      </trkpt>
      <trkpt lat="43.50773" lon="3.16853">
        <ele>167.8</ele>
      </trkpt>
      <trkpt lat="43.50825" lon="3.16766">
        <ele>166.3</ele>
      </trkpt>
      <trkpt lat="43.50885" lon="3.16494">
        <ele>151.8</ele>
      </trkpt>
      <trkpt lat="43.50961" lon="3.16383">
        <ele>148.8</ele>
      </trkpt>
      <trkpt lat="43.50989" lon="3.1636">
        <ele>147.8</ele>
      </trkpt>
      <trkpt lat="43.51023" lon="3.1633">
        <ele>146.9</ele>
      </trkpt>
      <trkpt lat="43.51063" lon="3.16327">
        <ele>144.9</ele>
      </trkpt>
      <trkpt lat="43.51081" lon="3.16282">
        <ele>143.5</ele>
      </trkpt>
      <trkpt lat="43.51163" lon="3.16224">
        <ele>146.2</ele>
      </trkpt>
      <trkpt lat="43.51194" lon="3.1613">
        <ele>150.5</ele>
      </trkpt>
      <trkpt lat="43.51259" lon="3.16073">
        <ele>152.9</ele>
      </trkpt>
      <trkpt lat="43.5124" lon="3.16062">
        <ele>154.7</ele>
      </trkpt>
      <trkpt lat="43.51215" lon="3.15991">
        <ele>163.4</ele>
      </trkpt>
      <trkpt lat="43.5122" lon="3.15964">
        <ele>165.1</ele>
      </trkpt>
      <trkpt lat="43.5118" lon="3.15877">
        <ele>167.4</ele>
      </trkpt>
      <trkpt lat="43.51094" lon="3.15915">
        <ele>170.8</ele>
      </trkpt>
      <trkpt lat="43.50974" lon="3.15913">
        <ele>168</ele>
      </trkpt>
      <trkpt lat="43.50912" lon="3.15883">
        <ele>162.4</ele>
      </trkpt>
      <trkpt lat="43.50815" lon="3.1589">
        <ele>156.4</ele>
      </trkpt>
      <trkpt lat="43.50726" lon="3.15898">
        <ele>157.8</ele>
      </trkpt>
      <trkpt lat="43.50486" lon="3.15673">
        <ele>160.4</ele>
      </trkpt>
      <trkpt lat="43.50329" lon="3.15853">
        <ele>148.4</ele>
      </trkpt>
      <trkpt lat="43.50402" lon="3.15888">
        <ele>148.8</ele>
      </trkpt>
      <trkpt lat="43.50465" lon="3.15885">
        <ele>147.2</ele>
      </trkpt>
      <trkpt lat="43.50481" lon="3.16043">
        <ele>134.3</ele>
      </trkpt>
      <trkpt lat="43.50436" lon="3.1611">
        <ele>131.1</ele>
      </trkpt>
      <trkpt lat="43.50318" lon="3.16088">
        <ele>129.5</ele>
      </trkpt>
      <trkpt lat="43.50272" lon="3.16203">
        <ele>128.7</ele>
      </trkpt>
      <trkpt lat="43.50202" lon="3.16344">
        <ele>135.8</ele>
      </trkpt>
      <trkpt lat="43.50188" lon="3.16393">
        <ele>138.1</ele>
      </trkpt>
      <trkpt lat="43.5016" lon="3.16502">
        <ele>146.3</ele>
      </trkpt>
      <trkpt lat="43.50138" lon="3.16539">
        <ele>148.5</ele>
      </trkpt>
      <trkpt lat="43.50099" lon="3.16599">
        <ele>150.2</ele>
      </trkpt>
      <trkpt lat="43.50114" lon="3.16715">
        <ele>156.3</ele>
      </trkpt>
      <trkpt lat="43.50037" lon="3.16857">
        <ele>163.6</ele>
      </trkpt>
      <trkpt lat="43.50048" lon="3.16864">
        <ele>163.7</ele>
      </trkpt>
      <trkpt lat="43.49991" lon="3.16956">
        <ele>163.8</ele>
      </trkpt>
      <trkpt lat="43.49925" lon="3.17019">
        <ele>159.8</ele>
      </trkpt>
      <trkpt lat="43.49906" lon="3.16861">
        <ele>164.4</ele>
      </trkpt>
      <trkpt lat="43.49895" lon="3.16852">
        <ele>164.9</ele>
      </trkpt>
    </trkseg>
  </trk>
</gpx>